Time;durP1;ratioP1;P1;durP2;ratioP2;P2;SDS_P1;SDS_P2;PMS_P1;PMS_P2;Temp;Humidity;BMP_temperature;BMP_pressure;BME280_temperature;BME280_humidity;BME280_pressure;Samples;Min_cycle;Max_cycle;Signal;HPM_P1;HPM_P2
2022/09/24 00:01:33;;;;;;;13.20;10.93;;;16.50;88.90;;;;;;5054092;28;20441;-68
2022/09/24 00:04:02;;;;;;;10.90;9.80;;;16.40;88.90;;;;;;5054398;28;20490;-67
2022/09/24 00:06:30;;;;;;;11.73;10.27;;;16.40;89.10;;;;;;5054327;28;20500;-67
2022/09/24 00:08:58;;;;;;;11.63;10.43;;;16.40;89.40;;;;;;5054085;28;20461;-67
2022/09/24 00:11:27;;;;;;;11.53;10.33;;;16.40;89.60;;;;;;5054065;28;20457;-68
2022/09/24 00:13:56;;;;;;;14.97;9.63;;;16.40;89.70;;;;;;5054386;28;20473;-68
2022/09/24 00:16:24;;;;;;;11.53;10.03;;;16.40;90.00;;;;;;5054269;28;20485;-67
2022/09/24 00:18:53;;;;;;;11.13;9.33;;;16.40;90.00;;;;;;5053853;28;20492;-67
2022/09/24 00:21:23;;;;;;;10.37;9.30;;;16.40;90.00;;;;;;5054125;28;20877;-67
2022/09/24 00:23:51;;;;;;;13.13;10.93;;;16.40;90.00;;;;;;5054421;28;20485;-67
2022/09/24 00:29:04;;;;;;;10.57;9.57;;;16.40;90.10;;;;;;5054283;28;20479;-68
2022/09/24 00:31:31;;;;;;;12.23;11.03;;;16.40;90.10;;;;;;5054269;28;20453;-68
2022/09/24 00:34:00;;;;;;;17.57;10.10;;;16.40;90.20;;;;;;5054076;28;20476;-67
2022/09/24 00:36:27;;;;;;;13.40;10.57;;;16.40;90.20;;;;;;5054616;28;20468;-68
2022/09/24 00:38:56;;;;;;;11.87;10.63;;;16.40;90.20;;;;;;5053973;28;20456;-68
2022/09/24 00:41:24;;;;;;;11.70;10.50;;;16.40;90.20;;;;;;5054056;28;20442;-68
2022/09/24 00:43:52;;;;;;;11.20;10.20;;;16.40;90.20;;;;;;5053641;28;20492;-68
2022/09/24 00:46:25;;;;;;;13.83;9.50;;;16.40;90.30;;;;;;5056482;28;20452;-68
2022/09/24 00:48:57;;;;;;;11.30;10.23;;;16.40;90.30;;;;;;5067790;28;20444;-67
2022/09/24 00:51:28;;;;;;;10.70;9.03;;;16.40;90.30;;;;;;5067274;28;20434;-67
2022/09/24 00:53:59;;;;;;;10.47;9.43;;;16.40;90.40;;;;;;5067864;28;20457;-67
2022/09/24 00:56:26;;;;;;;14.63;9.83;;;16.40;90.40;;;;;;5067715;28;20472;-67
2022/09/24 00:58:55;;;;;;;14.90;10.60;;;16.40;90.50;;;;;;5068240;28;20456;-67
2022/09/24 01:01:25;;;;;;;13.80;10.00;;;16.40;90.50;;;;;;5071622;28;20532;-67
2022/09/24 01:03:55;;;;;;;11.63;9.30;;;16.30;90.50;;;;;;5071451;28;20488;-68
2022/09/24 01:06:22;;;;;;;13.73;9.83;;;16.40;90.50;;;;;;5072195;28;20471;-68
2022/09/24 01:08:51;;;;;;;14.97;10.03;;;16.30;90.50;;;;;;5071563;28;20448;-67
2022/09/24 01:11:36;;;;;;;13.50;9.00;;;16.30;90.60;;;;;;5071060;28;20452;-67
2022/09/24 01:14:31;;;;;;;15.50;9.73;;;16.30;90.70;;;;;;5071866;28;20465;-68
2022/09/24 01:17:07;;;;;;;14.63;10.30;;;16.30;90.70;;;;;;5071959;28;20547;-68
2022/09/24 01:19:59;;;;;;;13.87;10.50;;;16.30;90.70;;;;;;5076995;28;20447;-68
2022/09/24 01:22:40;;;;;;;14.53;9.20;;;16.30;90.70;;;;;;5071155;28;20432;-68
2022/09/24 01:25:19;;;;;;;17.07;10.03;;;16.30;90.80;;;;;;5072146;28;20465;-67
2022/09/24 01:28:08;;;;;;;14.00;10.10;;;16.30;90.80;;;;;;5072320;28;20430;-67
2022/09/24 01:30:40;;;;;;;17.87;10.40;;;16.30;90.80;;;;;;5074705;28;20429;-67
2022/09/24 01:33:12;;;;;;;14.00;9.60;;;16.30;90.80;;;;;;5079346;28;20470;-67
2022/09/24 01:35:42;;;;;;;17.50;11.30;;;16.30;90.90;;;;;;5072017;28;20467;-67
2022/09/24 01:38:14;;;;;;;13.57;11.33;;;16.30;90.90;;;;;;5071236;28;20436;-68
2022/09/24 01:40:42;;;;;;;12.83;10.87;;;16.20;90.90;;;;;;5071856;28;20452;-67
2022/09/24 01:43:11;;;;;;;12.50;10.37;;;16.20;91.00;;;;;;5070633;28;20475;-68
2022/09/24 01:45:40;;;;;;;19.90;11.60;;;16.30;91.10;;;;;;5071407;28;20445;-67
2022/09/24 01:48:09;;;;;;;13.77;10.77;;;16.20;91.10;;;;;;5072261;28;20835;-67
2022/09/24 01:50:43;;;;;;;15.40;10.97;;;16.20;91.20;;;;;;5072852;28;20428;-67
2022/09/24 01:53:17;;;;;;;12.90;10.73;;;16.30;91.30;;;;;;5072498;28;20464;-67
2022/09/24 01:55:48;;;;;;;14.13;10.97;;;16.30;91.30;;;;;;5074042;28;20486;-67
2022/09/24 01:58:19;;;;;;;22.70;11.87;;;16.30;91.40;;;;;;5076464;28;20441;-67
2022/09/24 02:00:53;;;;;;;13.07;11.33;;;16.30;91.40;;;;;;5068428;28;20429;-67
2022/09/24 02:03:25;;;;;;;18.70;12.40;;;16.30;91.30;;;;;;5068169;28;20472;-68
2022/09/24 02:05:58;;;;;;;17.53;11.97;;;16.30;91.30;;;;;;5078237;28;20453;-68
2022/09/24 02:08:30;;;;;;;16.20;12.10;;;16.30;91.40;;;;;;5077744;28;20441;-68
2022/09/24 02:11:02;;;;;;;15.47;11.60;;;16.30;91.40;;;;;;5076176;28;20433;-68
2022/09/24 02:13:35;;;;;;;16.10;12.27;;;16.30;91.30;;;;;;5076800;28;20463;-67
2022/09/24 02:16:07;;;;;;;18.20;11.30;;;16.30;91.30;;;;;;5079499;28;20421;-68
2022/09/24 02:18:39;;;;;;;21.37;12.93;;;16.30;91.30;;;;;;5079567;28;20433;-68
2022/09/24 02:21:10;;;;;;;17.37;11.30;;;16.30;91.30;;;;;;5079942;28;20430;-68
2022/09/24 02:23:41;;;;;;;13.73;10.60;;;16.30;91.40;;;;;;5079975;28;20476;-68
2022/09/24 02:26:09;;;;;;;16.63;11.70;;;16.30;91.40;;;;;;5079669;28;20434;-68
2022/09/24 02:28:36;;;;;;;14.40;11.90;;;16.30;91.40;;;;;;5079900;28;20450;-68
2022/09/24 02:31:08;;;;;;;18.23;9.10;;;16.30;91.60;;;;;;5079904;28;20439;-68
2022/09/24 02:36:23;;;;;;;20.50;11.50;;;16.30;91.60;;;;;;5079149;28;20516;-68
2022/09/24 02:38:53;;;;;;;18.77;11.93;;;16.20;91.60;;;;;;5079253;28;20414;-68
2022/09/24 02:41:22;;;;;;;14.43;10.97;;;16.20;91.50;;;;;;5067584;28;20438;-68
2022/09/24 02:43:49;;;;;;;19.83;10.40;;;16.20;91.50;;;;;;5058279;28;20493;-68
2022/09/24 02:46:17;;;;;;;11.53;9.63;;;16.20;91.40;;;;;;5058202;28;20459;-68
2022/09/24 02:48:44;;;;;;;16.50;11.83;;;16.20;91.30;;;;;;5056782;28;20519;-68
2022/09/24 02:51:11;;;;;;;23.00;12.53;;;16.20;91.40;;;;;;5055404;28;20943;-68
2022/09/24 02:53:38;;;;;;;18.57;11.40;;;16.20;91.20;;;;;;5054969;28;20466;-67
2022/09/24 02:56:05;;;;;;;19.57;11.90;;;16.20;91.30;;;;;;5055273;28;20461;-67
2022/09/24 02:58:31;;;;;;;16.77;10.60;;;16.20;91.40;;;;;;5055342;28;20450;-67
2022/09/24 03:00:58;;;;;;;14.07;11.10;;;16.20;91.50;;;;;;5054903;28;20952;-67
2022/09/24 03:03:27;;;;;;;19.13;12.20;;;16.20;91.40;;;;;;5055298;28;20472;-68
2022/09/24 03:05:54;;;;;;;20.93;13.17;;;16.20;91.40;;;;;;5055304;28;20456;-68
2022/09/24 03:08:22;;;;;;;20.00;12.23;;;16.20;91.40;;;;;;5055327;28;20457;-67
2022/09/24 03:10:49;;;;;;;13.70;10.30;;;16.10;91.40;;;;;;5055241;28;20453;-68
2022/09/24 03:13:16;;;;;;;15.77;11.43;;;16.20;91.50;;;;;;5055208;28;20488;-67
2022/09/24 03:15:43;;;;;;;15.90;12.10;;;16.20;91.40;;;;;;5055111;28;20448;-68
2022/09/24 03:18:10;;;;;;;15.93;13.90;;;16.10;91.40;;;;;;5055584;28;20433;-67
2022/09/24 03:20:38;;;;;;;17.27;13.07;;;16.20;91.50;;;;;;5054836;28;20455;-67
2022/09/24 03:23:05;;;;;;;15.37;13.80;;;16.10;91.50;;;;;;5054396;28;20469;-67
2022/09/24 03:25:32;;;;;;;16.10;12.67;;;16.10;91.50;;;;;;5054536;28;20489;-67
2022/09/24 03:27:59;;;;;;;14.63;12.77;;;16.10;91.50;;;;;;5054829;28;20456;-68
2022/09/24 03:33:10;;;;;;;15.17;13.30;;;16.00;91.60;;;;;;5054406;28;20448;-68
2022/09/24 03:35:38;;;;;;;16.27;13.10;;;16.00;91.60;;;;;;5054437;28;20456;-68
2022/09/24 03:38:05;;;;;;;14.17;12.33;;;16.00;91.60;;;;;;5054340;28;20444;-68
2022/09/24 03:40:31;;;;;;;15.60;13.30;;;16.00;91.60;;;;;;5054118;28;20960;-68
2022/09/24 03:42:58;;;;;;;14.73;13.13;;;16.00;91.60;;;;;;5054396;28;20530;-68
2022/09/24 03:45:25;;;;;;;14.30;12.57;;;16.00;91.70;;;;;;5054540;28;20477;-67
2022/09/24 03:47:51;;;;;;;14.03;12.63;;;15.90;91.60;;;;;;5054045;28;20857;-68
2022/09/24 03:50:18;;;;;;;13.67;12.27;;;15.90;91.70;;;;;;5054339;28;20464;-68
2022/09/24 03:52:47;;;;;;;16.90;13.27;;;16.00;91.70;;;;;;5054342;28;20477;-67
2022/09/24 03:55:14;;;;;;;14.27;12.77;;;15.90;91.60;;;;;;5053867;28;20474;-68
2022/09/24 03:57:41;;;;;;;15.70;12.00;;;16.00;91.60;;;;;;5054421;28;20452;-67
2022/09/24 04:00:10;;;;;;;14.70;13.23;;;15.90;91.60;;;;;;5054163;28;20544;-68
2022/09/24 04:02:39;;;;;;;18.90;13.93;;;15.90;91.60;;;;;;5054110;28;20478;-67
2022/09/24 04:05:07;;;;;;;14.93;12.37;;;15.90;91.60;;;;;;5053683;28;20510;-67
2022/09/24 04:07:34;;;;;;;19.33;14.20;;;15.90;91.60;;;;;;5053632;28;20487;-67
2022/09/24 04:10:02;;;;;;;15.57;14.00;;;15.90;91.60;;;;;;5053693;28;20455;-67
2022/09/24 04:12:30;;;;;;;15.73;12.83;;;15.80;91.60;;;;;;5053619;28;20469;-68
2022/09/24 04:14:56;;;;;;;17.27;14.37;;;15.90;91.70;;;;;;5054433;28;20675;-68
2022/09/24 04:17:23;;;;;;;17.20;15.50;;;15.80;91.80;;;;;;5053640;28;20449;-68
2022/09/24 04:19:53;;;;;;;17.47;14.93;;;15.80;91.80;;;;;;5053580;28;20484;-68
2022/09/24 04:22:20;;;;;;;16.33;14.23;;;15.80;91.90;;;;;;5053491;28;20536;-68
2022/09/24 04:24:46;;;;;;;17.10;15.20;;;15.80;91.90;;;;;;5053278;28;21014;-68
2022/09/24 04:27:15;;;;;;;20.03;15.93;;;15.70;92.00;;;;;;5053500;28;20452;-68
2022/09/24 04:29:41;;;;;;;16.57;14.80;;;15.70;92.00;;;;;;5053593;28;20448;-68
2022/09/24 04:32:08;;;;;;;17.43;14.47;;;15.70;92.10;;;;;;5053395;28;20459;-68
2022/09/24 04:34:35;;;;;;;16.60;14.60;;;15.70;92.10;;;;;;5052707;28;20472;-68
2022/09/24 04:37:01;;;;;;;17.50;15.53;;;15.70;92.20;;;;;;5053519;28;20456;-68
2022/09/24 04:39:28;;;;;;;16.77;14.97;;;15.70;92.30;;;;;;5053539;28;20452;-68
2022/09/24 04:41:55;;;;;;;15.90;14.20;;;15.70;92.30;;;;;;5054097;28;20815;-67
2022/09/24 04:44:23;;;;;;;15.53;13.87;;;15.60;92.30;;;;;;5053412;28;20495;-68
2022/09/24 04:46:50;;;;;;;16.90;14.30;;;15.60;92.30;;;;;;5053501;28;20892;-67
2022/09/24 04:49:16;;;;;;;16.70;14.17;;;15.60;92.30;;;;;;5053873;28;20862;-68
2022/09/24 04:51:43;;;;;;;16.90;13.40;;;15.70;92.30;;;;;;5054184;28;20453;-67
2022/09/24 04:54:10;;;;;;;13.57;11.07;;;15.60;92.20;;;;;;5053159;28;20481;-67
2022/09/24 04:56:37;;;;;;;18.07;15.53;;;15.60;92.20;;;;;;5052940;28;20461;-68
2022/09/24 04:59:04;;;;;;;16.83;14.40;;;15.60;92.10;;;;;;5053322;28;20449;-68
2022/09/24 05:01:32;;;;;;;18.90;13.63;;;15.70;92.00;;;;;;5053308;28;20459;-68
2022/09/24 05:03:59;;;;;;;14.00;12.23;;;15.70;91.90;;;;;;5053294;28;20464;-68
2022/09/24 05:06:26;;;;;;;16.23;12.23;;;15.70;91.90;;;;;;5052955;28;20893;-68
2022/09/24 05:08:52;;;;;;;14.20;12.70;;;15.60;91.70;;;;;;5053203;28;20448;-68
2022/09/24 05:11:19;;;;;;;16.90;11.87;;;15.60;91.70;;;;;;5052939;28;20449;-68
2022/09/24 05:13:46;;;;;;;12.40;10.33;;;15.60;91.80;;;;;;5053108;28;20472;-68
2022/09/24 05:16:12;;;;;;;14.77;12.67;;;15.60;91.80;;;;;;5053246;28;20449;-68
2022/09/24 05:18:41;;;;;;;14.17;12.77;;;15.60;91.70;;;;;;5052963;28;20429;-68
2022/09/24 05:21:07;;;;;;;15.17;12.80;;;15.60;91.70;;;;;;5053152;28;20484;-68
2022/09/24 05:23:34;;;;;;;14.27;12.40;;;15.60;91.70;;;;;;5052792;28;21013;-68
2022/09/24 05:28:45;;;;;;;13.47;11.73;;;15.60;91.70;;;;;;5052829;28;20412;-68
2022/09/24 05:31:12;;;;;;;16.77;14.00;;;15.60;91.50;;;;;;5052653;28;20967;-68
2022/09/24 05:33:41;;;;;;;17.00;14.37;;;15.60;91.80;;;;;;5052759;28;20488;-68
2022/09/24 05:36:07;;;;;;;14.40;12.90;;;15.60;91.50;;;;;;5052858;28;20461;-68
2022/09/24 05:38:34;;;;;;;15.47;12.60;;;15.60;91.50;;;;;;5052855;28;20452;-68
2022/09/24 05:41:01;;;;;;;17.50;14.23;;;15.50;91.50;;;;;;5052740;28;20456;-68
2022/09/24 05:43:27;;;;;;;15.40;13.10;;;15.50;91.50;;;;;;5052619;28;20474;-68
2022/09/24 05:45:57;;;;;;;18.00;13.23;;;15.60;91.60;;;;;;5055251;28;20844;-68
2022/09/24 05:48:24;;;;;;;15.80;13.70;;;15.60;91.70;;;;;;5055941;28;20892;-68
2022/09/24 05:50:54;;;;;;;15.03;13.20;;;15.60;91.80;;;;;;5055934;28;20912;-68
2022/09/24 05:53:21;;;;;;;15.77;13.00;;;15.60;91.90;;;;;;5056224;28;20473;-68
2022/09/24 05:55:48;;;;;;;15.80;12.40;;;15.50;91.90;;;;;;5056118;28;20475;-68
2022/09/24 05:58:15;;;;;;;14.53;11.73;;;15.60;92.00;;;;;;5056289;28;20452;-68
2022/09/24 06:00:44;;;;;;;15.87;12.90;;;15.50;92.00;;;;;;5056028;28;20456;-68
2022/09/24 06:03:12;;;;;;;15.43;12.40;;;15.60;92.10;;;;;;5055984;28;20476;-68
2022/09/24 06:05:44;;;;;;;20.20;14.00;;;15.60;92.00;;;;;;5055524;28;20993;-68
2022/09/24 06:08:14;;;;;;;14.47;12.20;;;15.60;92.00;;;;;;5055679;28;20912;-68
2022/09/24 06:10:41;;;;;;;14.13;12.10;;;15.70;92.10;;;;;;5059824;28;20484;-67
2022/09/24 06:13:10;;;;;;;20.93;12.90;;;15.70;92.00;;;;;;5070940;28;20480;-67
2022/09/24 06:15:37;;;;;;;16.17;12.43;;;15.70;91.90;;;;;;5070044;28;20495;-67
2022/09/24 06:18:04;;;;;;;16.00;12.57;;;15.80;91.90;;;;;;5071018;28;20437;-68
2022/09/24 06:20:32;;;;;;;13.33;11.57;;;15.80;91.90;;;;;;5070425;28;20461;-67
2022/09/24 06:22:59;;;;;;;15.23;12.40;;;15.90;91.80;;;;;;5070728;28;20473;-67
2022/09/24 06:25:27;;;;;;;15.07;12.97;;;15.90;91.60;;;;;;5070447;28;20482;-67
2022/09/24 06:27:59;;;;;;;12.40;11.20;;;15.90;91.50;;;;;;5069633;28;20480;-67
2022/09/24 06:30:26;;;;;;;14.07;11.93;;;16.00;91.40;;;;;;5069992;28;20453;-67
2022/09/24 06:32:53;;;;;;;19.60;12.90;;;16.00;91.30;;;;;;5070192;28;20461;-67
2022/09/24 06:35:20;;;;;;;15.80;11.50;;;16.10;91.30;;;;;;5070197;28;20813;-67
2022/09/24 06:37:48;;;;;;;14.93;11.87;;;16.10;91.20;;;;;;5070020;28;20450;-67
2022/09/24 06:40:15;;;;;;;14.70;12.00;;;16.20;91.10;;;;;;5070686;28;20483;-67
2022/09/24 06:42:43;;;;;;;12.40;10.00;;;16.30;91.00;;;;;;5071086;28;20483;-67
2022/09/24 06:45:10;;;;;;;14.20;11.47;;;16.30;90.80;;;;;;5069575;28;20486;-67
2022/09/24 06:47:37;;;;;;;18.60;12.17;;;16.40;90.70;;;;;;5069364;28;20457;-67
2022/09/24 06:50:05;;;;;;;14.97;10.63;;;16.40;90.60;;;;;;5069435;28;20449;-67
2022/09/24 06:52:32;;;;;;;13.93;11.20;;;16.50;90.40;;;;;;5069679;28;20469;-70
2022/09/24 06:54:58;;;;;;;15.80;11.87;;;16.50;90.10;;;;;;5068221;28;20456;-66
2022/09/24 06:57:25;;;;;;;17.60;12.70;;;16.50;89.90;;;;;;5067946;28;20464;-67
2022/09/24 06:59:53;;;;;;;16.77;12.97;;;16.60;89.60;;;;;;5069350;28;20433;-67
2022/09/24 07:02:20;;;;;;;13.13;11.83;;;16.60;89.70;;;;;;5067596;28;20441;-67
2022/09/24 07:04:47;;;;;;;19.97;14.70;;;16.70;89.80;;;;;;5068375;28;20445;-67
2022/09/24 07:07:32;;;;;;;19.17;14.47;;;16.70;89.60;;;;;;5068044;28;20458;-67
2022/09/24 07:10:00;;;;;;;14.70;12.83;;;16.80;89.60;;;;;;5066302;28;20452;-68
2022/09/24 07:12:28;;;;;;;17.10;13.80;;;16.80;89.30;;;;;;5066718;28;20432;-67
2022/09/24 07:14:56;;;;;;;13.90;12.13;;;16.80;89.00;;;;;;5066869;28;20450;-67
2022/09/24 07:17:23;;;;;;;14.00;12.60;;;16.90;88.80;;;;;;5066902;28;20422;-66
2022/09/24 07:19:50;;;;;;;17.30;13.57;;;16.90;88.70;;;;;;5068019;28;20444;-67
2022/09/24 07:22:18;;;;;;;12.90;11.57;;;16.90;88.60;;;;;;5068455;28;20450;-67
2022/09/24 07:24:47;;;;;;;12.70;9.93;;;16.90;88.60;;;;;;5067431;28;20453;-67
2022/09/24 07:27:14;;;;;;;14.93;11.50;;;16.90;88.50;;;;;;5067460;28;20430;-68
2022/09/24 07:29:41;;;;;;;14.00;12.50;;;16.90;88.50;;;;;;5066712;28;20453;-67
2022/09/24 07:32:09;;;;;;;15.67;12.07;;;16.90;89.20;;;;;;5067576;28;20466;-67
2022/09/24 07:34:36;;;;;;;16.73;13.80;;;16.90;89.80;;;;;;5067418;28;20453;-67
2022/09/24 07:37:03;;;;;;;18.37;12.70;;;17.00;89.70;;;;;;5065380;28;20449;-67
2022/09/24 07:39:30;;;;;;;14.97;10.90;;;17.00;87.00;;;;;;5065780;28;20441;-66
2022/09/24 07:41:57;;;;;;;14.70;13.13;;;17.10;85.80;;;;;;5065837;28;20442;-67
2022/09/24 07:44:24;;;;;;;17.70;13.90;;;17.10;86.30;;;;;;5065699;28;20477;-67
2022/09/24 07:46:50;;;;;;;24.10;14.07;;;17.20;87.00;;;;;;5066980;28;20547;-66
2022/09/24 07:49:18;;;;;;;16.30;13.90;;;17.20;87.40;;;;;;5066654;28;20446;-65
2022/09/24 07:51:45;;;;;;;19.77;13.17;;;17.30;87.40;;;;;;5066979;28;20456;-66
2022/09/24 07:54:13;;;;;;;18.60;13.07;;;17.40;87.30;;;;;;5067491;28;20477;-65
2022/09/24 07:56:39;;;;;;;17.20;12.97;;;17.50;87.00;;;;;;5066821;28;20446;-67
2022/09/24 07:59:06;;;;;;;20.03;13.37;;;17.50;86.70;;;;;;5064899;28;20949;-65
2022/09/24 08:01:34;;;;;;;19.30;14.27;;;17.60;86.70;;;;;;5071443;28;20446;-65
2022/09/24 08:04:03;;;;;;;14.43;12.73;;;17.70;86.50;;;;;;5067922;28;20472;-65
2022/09/24 08:06:32;;;;;;;17.50;12.83;;;17.80;86.20;;;;;;5067088;28;20908;-67
2022/09/24 08:08:59;;;;;;;16.93;13.67;;;17.80;85.70;;;;;;5068295;28;20434;-66
2022/09/24 08:11:26;;;;;;;14.63;12.93;;;17.80;85.20;;;;;;5067339;28;20445;-67
2022/09/24 08:13:52;;;;;;;21.70;14.17;;;17.90;85.10;;;;;;5066007;28;20469;-66
2022/09/24 08:16:21;;;;;;;19.63;12.40;;;17.90;85.10;;;;;;5067506;28;20423;-66
2022/09/24 08:18:47;;;;;;;18.00;11.03;;;17.90;84.90;;;;;;5065658;28;20961;-67
2022/09/24 08:21:14;;;;;;;15.60;12.20;;;18.00;83.60;;;;;;5065250;28;20449;-66
2022/09/24 08:23:43;;;;;;;16.00;12.40;;;18.10;83.00;;;;;;5065438;28;20478;-66
2022/09/24 08:26:10;;;;;;;12.63;11.07;;;18.30;83.80;;;;;;5065902;28;20472;-68
2022/09/24 08:28:39;;;;;;;18.77;11.83;;;18.40;83.60;;;;;;5066683;28;20454;-66
2022/09/24 08:31:11;;;;;;;17.53;12.40;;;18.60;83.60;;;;;;5066131;28;20446;-66
2022/09/24 08:33:38;;;;;;;15.03;12.43;;;18.80;83.20;;;;;;5065087;28;20470;-66
2022/09/24 08:36:08;;;;;;;13.37;11.70;;;19.00;82.10;;;;;;5065279;28;20438;-66
2022/09/24 08:38:35;;;;;;;16.27;10.90;;;19.20;81.10;;;;;;5064313;28;20465;-67
2022/09/24 08:41:13;;;;;;;15.77;10.77;;;19.40;80.00;;;;;;5065457;28;20952;-67
2022/09/24 08:43:46;;;;;;;10.70;9.50;;;19.60;79.10;;;;;;5066498;28;20465;-67
2022/09/24 08:49:23;;;;;;;12.60;9.83;;;20.10;77.50;;;;;;5023723;28;20507;-67
2022/09/24 08:52:00;;;;;;;10.43;9.30;;;20.30;75.80;;;;;;5023691;28;20428;-67
2022/09/24 08:54:29;;;;;;;12.87;10.90;;;20.50;74.10;;;;;;5046365;28;20466;-67
2022/09/24 08:57:00;;;;;;;13.97;11.27;;;20.60;72.80;;;;;;5065504;28;20827;-68
2022/09/24 08:59:30;;;;;;;12.53;9.20;;;20.70;71.50;;;;;;5066129;28;20457;-68
2022/09/24 09:02:21;;;;;;;13.00;9.30;;;20.70;70.40;;;;;;5065572;28;20433;-67
2022/09/24 09:04:58;;;;;;;14.70;10.70;;;20.80;70.30;;;;;;5065275;28;20928;-67
2022/09/24 09:07:30;;;;;;;13.93;12.20;;;20.90;69.70;;;;;;5067216;28;20837;-67
2022/09/24 09:10:02;;;;;;;15.33;10.37;;;21.00;69.10;;;;;;5067534;28;20430;-68
2022/09/24 09:12:38;;;;;;;12.90;11.60;;;21.00;68.20;;;;;;5065991;28;20507;-68
2022/09/24 09:15:07;;;;;;;11.83;10.63;;;21.00;68.20;;;;;;5063155;28;20974;-65
2022/09/24 09:17:41;;;;;;;12.77;11.37;;;21.00;68.40;;;;;;5062745;28;20430;-66
2022/09/24 09:20:17;;;;;;;12.17;10.40;;;21.10;68.20;;;;;;5063522;28;20932;-66
2022/09/24 09:22:48;;;;;;;9.60;8.60;;;21.10;67.50;;;;;;5066473;28;20465;-66
2022/09/24 09:25:19;;;;;;;9.73;8.60;;;21.10;67.00;;;;;;5066210;28;20442;-66
2022/09/24 09:27:50;;;;;;;8.87;7.97;;;21.20;67.20;;;;;;5066051;28;20463;-66
2022/09/24 09:30:19;;;;;;;12.37;7.33;;;21.30;67.10;;;;;;5067133;28;20436;-66
2022/09/24 09:33:14;;;;;;;11.00;9.90;;;21.50;66.50;;;;;;5066096;28;20465;-66
2022/09/24 09:35:50;;;;;;;11.93;10.50;;;21.60;65.50;;;;;;5070125;28;20436;-67
2022/09/24 09:38:24;;;;;;;11.57;10.33;;;21.70;64.00;;;;;;5070266;28;20533;-67
2022/09/24 09:41:00;;;;;;;15.07;10.20;;;21.80;63.20;;;;;;5069688;28;20445;-68
2022/09/24 09:43:28;;;;;;;10.03;9.03;;;21.80;62.70;;;;;;5068708;28;20518;-67
2022/09/24 09:46:06;;;;;;;9.70;8.30;;;21.90;63.10;;;;;;5068948;28;20478;-67
2022/09/24 09:48:43;;;;;;;8.13;7.43;;;22.10;63.30;;;;;;5073906;28;20442;-66
2022/09/24 09:51:16;;;;;;;7.50;6.80;;;22.30;62.70;;;;;;5068703;28;20430;-67
2022/09/24 09:53:54;;;;;;;10.30;8.10;;;22.50;62.00;;;;;;5068011;28;20470;-67
2022/09/24 09:56:24;;;;;;;9.50;8.33;;;22.70;61.50;;;;;;5067397;28;20449;-64
2022/09/24 09:59:02;;;;;;;8.63;7.43;;;22.80;60.60;;;;;;5063202;28;20442;-64
2022/09/24 10:01:32;;;;;;;10.53;9.50;;;23.00;59.70;;;;;;5063303;28;20434;-64
2022/09/24 10:04:03;;;;;;;12.17;8.67;;;23.10;58.30;;;;;;5065554;28;20462;-67
2022/09/24 10:06:31;;;;;;;11.13;9.57;;;23.20;58.50;;;;;;5065489;28;20529;-65
2022/09/24 10:09:11;;;;;;;8.93;8.13;;;23.30;57.20;;;;;;5064191;28;21023;-65
2022/09/24 10:11:39;;;;;;;9.77;8.87;;;23.40;57.20;;;;;;5064336;28;20442;-68
2022/09/24 10:14:10;;;;;;;8.93;8.03;;;23.70;56.40;;;;;;5070509;28;20481;-69
2022/09/24 10:16:39;;;;;;;7.00;6.30;;;24.00;54.80;;;;;;5071377;28;20430;-67
2022/09/24 10:19:16;;;;;;;9.10;8.23;;;24.30;54.80;;;;;;5070412;28;20450;-68
2022/09/24 10:21:43;;;;;;;9.20;7.30;;;24.70;53.60;;;;;;5071167;28;20433;-68
2022/09/24 10:24:16;;;;;;;7.20;6.53;;;24.90;51.60;;;;;;5071118;28;20466;-68
2022/09/24 10:26:45;;;;;;;7.43;6.70;;;24.90;51.10;;;;;;5070551;28;20474;-69
2022/09/24 10:32:02;;;;;;;8.87;7.67;;;24.90;51.30;;;;;;5069393;28;20485;-68
2022/09/24 10:34:30;;;;;;;11.37;8.80;;;24.80;51.10;;;;;;5070338;28;20476;-69
2022/09/24 10:37:00;;;;;;;6.90;6.30;;;24.60;51.40;;;;;;5071038;28;20442;-68
2022/09/24 10:39:28;;;;;;;8.43;7.40;;;24.40;51.60;;;;;;5069007;28;20450;-68
2022/09/24 10:41:56;;;;;;;11.17;7.53;;;24.20;51.80;;;;;;5068367;28;20452;-68
2022/09/24 10:44:32;;;;;;;7.90;7.20;;;23.80;51.80;;;;;;5070116;28;20501;-68
2022/09/24 10:47:21;;;;;;;9.10;7.30;;;23.50;52.80;;;;;;5070312;28;20481;-67
2022/09/24 10:50:02;;;;;;;9.33;8.33;;;23.20;53.50;;;;;;5070197;28;20426;-69
2022/09/24 10:52:45;;;;;;;8.10;7.10;;;22.90;53.70;;;;;;5070278;28;20489;-68
2022/09/24 10:55:25;;;;;;;7.40;6.37;;;22.60;54.00;;;;;;5069819;28;20442;-70
2022/09/24 10:58:01;;;;;;;10.33;7.10;;;22.40;54.50;;;;;;5067272;28;20422;-69
2022/09/24 11:00:37;;;;;;;7.10;6.40;;;22.10;55.20;;;;;;5070885;28;20430;-68
2022/09/24 11:03:41;;;;;;;7.87;6.90;;;21.90;55.70;;;;;;5069411;28;20469;-69
2022/09/24 11:06:18;;;;;;;7.73;6.77;;;21.80;56.50;;;;;;5070797;28;20441;-69
2022/09/24 11:09:02;;;;;;;6.93;6.23;;;21.60;56.20;;;;;;5070597;28;20861;-69
2022/09/24 11:11:41;;;;;;;6.63;5.33;;;21.40;55.90;;;;;;5070210;28;20441;-68
2022/09/24 11:14:23;;;;;;;5.97;5.47;;;21.20;56.60;;;;;;5069621;28;20992;-69
2022/09/24 11:17:32;;;;;;;6.30;5.80;;;21.10;57.30;;;;;;5070109;28;20434;-69
2022/09/24 11:20:21;;;;;;;6.93;5.70;;;21.10;58.00;;;;;;5015591;28;20429;-69
2022/09/24 11:23:09;;;;;;;7.17;6.13;;;21.10;57.90;;;;;;5008978;28;20477;-69
2022/09/24 11:25:46;;;;;;;6.23;5.57;;;21.20;58.40;;;;;;5054205;28;20441;-69
2022/09/24 11:28:30;;;;;;;6.70;6.00;;;21.30;58.20;;;;;;5069926;28;20473;-68
2022/09/24 11:31:06;;;;;;;6.43;5.77;;;21.30;58.10;;;;;;5070248;28;20437;-69
2022/09/24 11:33:49;;;;;;;10.57;5.70;;;21.40;58.20;;;;;;5070695;28;20482;-69
2022/09/24 11:36:30;;;;;;;8.23;5.80;;;21.40;58.80;;;;;;5070791;28;20430;-69
2022/09/24 11:39:07;;;;;;;6.60;6.00;;;21.40;59.20;;;;;;5070671;28;20440;-68
2022/09/24 11:41:44;;;;;;;7.27;6.57;;;21.40;59.10;;;;;;5070821;28;20410;-68
2022/09/24 11:44:45;;;;;;;7.20;6.60;;;21.30;59.10;;;;;;5069560;28;20487;-68
2022/09/24 11:47:25;;;;;;;6.83;5.70;;;21.30;59.70;;;;;;5069542;28;20905;-68
2022/09/24 11:50:11;;;;;;;6.17;5.67;;;21.20;59.90;;;;;;5069676;28;20469;-68
2022/09/24 11:52:42;;;;;;;7.30;6.60;;;21.10;60.10;;;;;;5070001;28;20498;-68
2022/09/24 11:55:15;;;;;;;7.27;6.20;;;21.00;60.60;;;;;;5069952;28;20447;-68
2022/09/24 11:57:46;;;;;;;7.83;7.13;;;20.90;59.40;;;;;;5070020;28;20941;-68
2022/09/24 12:00:16;;;;;;;7.93;7.13;;;20.90;59.70;;;;;;5070015;28;20431;-68
2022/09/24 12:02:48;;;;;;;6.20;5.60;;;20.80;59.90;;;;;;5069086;28;20580;-68
2022/09/24 12:05:26;;;;;;;6.40;5.83;;;20.80;60.30;;;;;;5068537;28;20765;-68
2022/09/24 12:07:57;;;;;;;6.63;6.03;;;20.70;61.40;;;;;;5068262;28;20474;-68
2022/09/24 12:10:33;;;;;;;7.70;6.30;;;20.70;61.80;;;;;;5069130;28;20462;-68
2022/09/24 12:13:11;;;;;;;6.87;6.17;;;20.70;61.90;;;;;;5068968;28;20465;-68
2022/09/24 12:15:46;;;;;;;7.30;6.13;;;20.70;62.00;;;;;;5069780;28;20438;-68
2022/09/24 12:18:18;;;;;;;6.47;5.77;;;20.70;61.50;;;;;;5068424;28;20434;-68
2022/09/24 12:20:50;;;;;;;6.07;5.50;;;20.70;61.60;;;;;;5069272;28;20438;-68
2022/09/24 12:23:22;;;;;;;8.63;5.63;;;20.80;62.70;;;;;;5069578;28;20453;-68
2022/09/24 12:25:52;;;;;;;5.93;5.07;;;20.80;63.20;;;;;;5069696;28;20450;-69
2022/09/24 12:33:55;;;;;;;10.43;8.70;;;20.90;63.30;;;;;;5068197;28;20467;-68
2022/09/24 12:36:31;;;;;;;10.77;9.53;;;20.90;63.60;;;;;;5068282;28;20436;-68
2022/09/24 12:39:04;;;;;;;9.97;8.97;;;20.90;63.90;;;;;;5068742;28;20426;-69
2022/09/24 12:41:32;;;;;;;14.47;11.00;;;20.90;64.90;;;;;;5068530;28;20434;-69
2022/09/24 12:44:05;;;;;;;12.27;10.50;;;20.90;64.30;;;;;;5068684;28;20477;-69
2022/09/24 12:46:41;;;;;;;10.50;9.50;;;20.90;64.70;;;;;;5068882;28;20430;-68
2022/09/24 12:49:19;;;;;;;11.20;10.20;;;20.90;64.80;;;;;;5069418;28;20410;-68
2022/09/24 12:51:47;;;;;;;12.70;10.20;;;20.90;64.80;;;;;;5068623;28;20426;-69
2022/09/24 12:54:27;;;;;;;16.10;11.60;;;20.90;64.80;;;;;;5068282;28;20466;-69
2022/09/24 12:57:05;;;;;;;13.80;11.70;;;20.90;66.10;;;;;;5072061;28;20445;-69
2022/09/24 12:59:32;;;;;;;12.20;10.90;;;20.80;65.40;;;;;;5073329;28;20429;-69
2022/09/24 13:02:13;;;;;;;13.97;10.70;;;20.90;65.80;;;;;;5072699;28;20540;-69
2022/09/24 13:04:50;;;;;;;13.23;10.40;;;20.90;66.00;;;;;;5073203;28;20426;-69
2022/09/24 13:07:29;;;;;;;13.20;11.87;;;20.90;65.70;;;;;;5071624;28;20557;-69
2022/09/24 13:09:56;;;;;;;13.07;11.67;;;20.90;65.70;;;;;;5072213;28;20441;-68
2022/09/24 13:12:31;;;;;;;14.73;11.90;;;20.90;65.50;;;;;;5071993;28;20449;-68